sensor_id;sensor_type;location;lat;lon;timestamp;pressure;altitude;pressure_sealevel;temperature;humidity
38630;BME280;24384;51.988;4.644;2023-07-20T00:00:15;101526.59;;;16.40;100.00
38630;BME280;24384;51.988;4.644;2023-07-20T00:02:40;101520.75;;;16.51;100.00
38630;BME280;24384;51.988;4.644;2023-07-20T00:05:06;101519.88;;;16.70;100.00
38630;BME280;24384;51.988;4.644;2023-07-20T00:07:31;101517.38;;;16.67;100.00
38630;BME280;24384;51.988;4.644;2023-07-20T00:09:56;101518.63;;;16.59;100.00
38630;BME280;24384;51.988;4.644;2023-07-20T00:12:23;101523.34;;;16.53;100.00
38630;BME280;24384;51.988;4.644;2023-07-20T00:14:48;101523.34;;;16.53;100.00
38630;BME280;24384;51.988;4.644;2023-07-20T00:17:13;101531.69;;;16.45;100.00
38630;BME280;24384;51.988;4.644;2023-07-20T00:19:39;101522.16;;;16.41;100.00
38630;BME280;24384;51.988;4.644;2023-07-20T00:22:04;101521.53;;;16.34;100.00
38630;BME280;24384;51.988;4.644;2023-07-20T00:24:30;101529.81;;;16.28;100.00
38630;BME280;24384;51.988;4.644;2023-07-20T00:26:55;101519.03;;;16.31;100.00
38630;BME280;24384;51.988;4.644;2023-07-20T00:29:21;101528.75;;;16.32;100.00
38630;BME280;24384;51.988;4.644;2023-07-20T00:31:46;101531.25;;;16.35;100.00
38630;BME280;24384;51.988;4.644;2023-07-20T00:34:11;101528.03;;;16.28;100.00
38630;BME280;24384;51.988;4.644;2023-07-20T00:36:36;101526.09;;;16.32;100.00
38630;BME280;24384;51.988;4.644;2023-07-20T00:39:02;101524.66;;;16.44;100.00
38630;BME280;24384;51.988;4.644;2023-07-20T00:41:28;101527.69;;;16.36;100.00
38630;BME280;24384;51.988;4.644;2023-07-20T00:43:55;101525.72;;;16.40;100.00
38630;BME280;24384;51.988;4.644;2023-07-20T00:46:22;101528.75;;;16.32;100.00
38630;BME280;24384;51.988;4.644;2023-07-20T00:48:48;101534.00;;;16.15;100.00
38630;BME280;24384;51.988;4.644;2023-07-20T00:51:13;101533.84;;;16.18;100.00
38630;BME280;24384;51.988;4.644;2023-07-20T00:53:39;101534.13;;;16.11;100.00
38630;BME280;24384;51.988;4.644;2023-07-20T00:56:04;101529.94;;;16.06;100.00
38630;BME280;24384;51.988;4.644;2023-07-20T00:58:30;101527.47;;;16.01;100.00
38630;BME280;24384;51.988;4.644;2023-07-20T01:00:55;101534.13;;;15.91;100.00
38630;BME280;24384;51.988;4.644;2023-07-20T01:03:20;101527.81;;;15.93;100.00
38630;BME280;24384;51.988;4.644;2023-07-20T01:06:41;101525.50;;;15.86;100.00
38630;BME280;24384;51.988;4.644;2023-07-20T01:12:04;101536.00;;;15.68;100.00
38630;BME280;24384;51.988;4.644;2023-07-20T01:14:32;101535.34;;;15.63;100.00
38630;BME280;24384;51.988;4.644;2023-07-20T01:16:59;101537.19;;;15.61;100.00
38630;BME280;24384;51.988;4.644;2023-07-20T01:19:24;101540.94;;;15.57;100.00
38630;BME280;24384;51.988;4.644;2023-07-20T01:22:04;101538.19;;;15.58;100.00
38630;BME280;24384;51.988;4.644;2023-07-20T01:30:43;101552.91;;;15.25;100.00
38630;BME280;24384;51.988;4.644;2023-07-20T01:33:12;101553.59;;;15.08;100.00
38630;BME280;24384;51.988;4.644;2023-07-20T01:35:38;101545.56;;;15.09;100.00
38630;BME280;24384;51.988;4.644;2023-07-20T01:38:06;101545.81;;;15.03;100.00
38630;BME280;24384;51.988;4.644;2023-07-20T01:40:32;101552.19;;;14.99;100.00
38630;BME280;24384;51.988;4.644;2023-07-20T01:42:58;101537.72;;;15.06;100.00
38630;BME280;24384;51.988;4.644;2023-07-20T01:45:23;101547.47;;;15.06;100.00
38630;BME280;24384;51.988;4.644;2023-07-20T01:47:48;101553.28;;;15.15;100.00
38630;BME280;24384;51.988;4.644;2023-07-20T01:50:14;101546.50;;;15.08;100.00
38630;BME280;24384;51.988;4.644;2023-07-20T01:52:39;101555.25;;;15.10;100.00
38630;BME280;24384;51.988;4.644;2023-07-20T01:55:05;101550.13;;;15.06;100.00
38630;BME280;24384;51.988;4.644;2023-07-20T01:57:30;101559.97;;;15.03;100.00
38630;BME280;24384;51.988;4.644;2023-07-20T01:59:55;101561.69;;;15.04;100.00
38630;BME280;24384;51.988;4.644;2023-07-20T02:02:21;101554.28;;;14.91;100.00
38630;BME280;24384;51.988;4.644;2023-07-20T02:04:46;101563.22;;;14.88;100.00
38630;BME280;24384;51.988;4.644;2023-07-20T02:07:11;101560.69;;;14.85;100.00
38630;BME280;24384;51.988;4.644;2023-07-20T02:09:36;101561.13;;;14.96;100.00
38630;BME280;24384;51.988;4.644;2023-07-20T02:12:02;101561.44;;;14.89;100.00
38630;BME280;24384;51.988;4.644;2023-07-20T02:14:27;101562.50;;;14.84;100.00
38630;BME280;24384;51.988;4.644;2023-07-20T02:16:52;101559.78;;;14.86;100.00
38630;BME280;24384;51.988;4.644;2023-07-20T02:19:19;101561.31;;;14.92;100.00
38630;BME280;24384;51.988;4.644;2023-07-20T02:21:44;101561.59;;;14.84;100.00
38630;BME280;24384;51.988;4.644;2023-07-20T02:24:12;101561.59;;;14.84;100.00
38630;BME280;24384;51.988;4.644;2023-07-20T02:26:39;101561.84;;;14.78;100.00
38630;BME280;24384;51.988;4.644;2023-07-20T02:29:04;101558.47;;;14.74;100.00
38630;BME280;24384;51.988;4.644;2023-07-20T02:31:30;101551.16;;;14.79;100.00
38630;BME280;24384;51.988;4.644;2023-07-20T02:33:55;101559.31;;;14.75;100.00
38630;BME280;24384;51.988;4.644;2023-07-20T02:36:20;101558.75;;;14.66;100.00
38630;BME280;24384;51.988;4.644;2023-07-20T02:38:46;101562.97;;;14.72;100.00
38630;BME280;24384;51.988;4.644;2023-07-20T02:41:12;101558.22;;;14.57;100.00
38630;BME280;24384;51.988;4.644;2023-07-20T02:43:38;101555.38;;;14.38;100.00
38630;BME280;24384;51.988;4.644;2023-07-20T02:46:03;101551.25;;;14.30;100.00
38630;BME280;24384;51.988;4.644;2023-07-20T02:48:28;101552.28;;;14.26;100.00
38630;BME280;24384;51.988;4.644;2023-07-20T02:50:54;101556.72;;;14.26;100.00
38630;BME280;24384;51.988;4.644;2023-07-20T02:53:19;101560.34;;;14.23;100.00
38630;BME280;24384;51.988;4.644;2023-07-20T02:55:44;101563.81;;;14.25;100.00
38630;BME280;24384;51.988;4.644;2023-07-20T02:58:10;101573.84;;;14.17;100.00
38630;BME280;24384;51.988;4.644;2023-07-20T03:00:35;101572.09;;;14.16;100.00
38630;BME280;24384;51.988;4.644;2023-07-20T03:03:00;101583.75;;;14.12;100.00
38630;BME280;24384;51.988;4.644;2023-07-20T03:05:25;101576.78;;;14.09;100.00
38630;BME280;24384;51.988;4.644;2023-07-20T03:07:52;101588.34;;;14.07;100.00
38630;BME280;24384;51.988;4.644;2023-07-20T03:10:17;101581.06;;;14.13;100.00
38630;BME280;24384;51.988;4.644;2023-07-20T03:12:42;101594.94;;;14.20;100.00
38630;BME280;24384;51.988;4.644;2023-07-20T03:15:08;101585.91;;;14.01;100.00
38630;BME280;24384;51.988;4.644;2023-07-20T03:17:33;101587.59;;;14.03;100.00
38630;BME280;24384;51.988;4.644;2023-07-20T03:19:59;101590.53;;;13.95;100.00
38630;BME280;24384;51.988;4.644;2023-07-20T03:22:25;101599.16;;;14.01;100.00
38630;BME280;24384;51.988;4.644;2023-07-20T03:24:51;101595.66;;;14.00;100.00
38630;BME280;24384;51.988;4.644;2023-07-20T03:27:17;101592.97;;;14.02;100.00
38630;BME280;24384;51.988;4.644;2023-07-20T03:29:42;101596.69;;;13.96;100.00
38630;BME280;24384;51.988;4.644;2023-07-20T03:32:08;101590.34;;;14.00;100.00
38630;BME280;24384;51.988;4.644;2023-07-20T03:34:33;101597.34;;;14.03;100.00
38630;BME280;24384;51.988;4.644;2023-07-20T03:36:58;101587.38;;;14.09;100.00
38630;BME280;24384;51.988;4.644;2023-07-20T03:39:24;101591.06;;;14.05;100.00
38630;BME280;24384;51.988;4.644;2023-07-20T03:41:49;101593.59;;;14.08;100.00
38630;BME280;24384;51.988;4.644;2023-07-20T03:44:15;101595.22;;;14.12;100.00
38630;BME280;24384;51.988;4.644;2023-07-20T03:46:40;101593.75;;;14.04;100.00
38630;BME280;24384;51.988;4.644;2023-07-20T03:49:05;101583.75;;;13.87;100.00
38630;BME280;24384;51.988;4.644;2023-07-20T03:51:31;101593.38;;;13.89;100.00
38630;BME280;24384;51.988;4.644;2023-07-20T03:53:57;101591.47;;;13.93;100.00
38630;BME280;24384;51.988;4.644;2023-07-20T03:56:22;101587.06;;;13.93;100.00
38630;BME280;24384;51.988;4.644;2023-07-20T03:58:48;101592.59;;;13.87;100.00
38630;BME280;24384;51.988;4.644;2023-07-20T04:01:13;101590.09;;;13.83;100.00
38630;BME280;24384;51.988;4.644;2023-07-20T04:03:38;101598.84;;;13.85;100.00
38630;BME280;24384;51.988;4.644;2023-07-20T04:06:03;101595.06;;;13.92;100.00
38630;BME280;24384;51.988;4.644;2023-07-20T04:08:29;101597.78;;;13.90;100.00
38630;BME280;24384;51.988;4.644;2023-07-20T04:10:54;101597.34;;;14.03;100.00
38630;BME280;24384;51.988;4.644;2023-07-20T04:13:21;101596.91;;;13.90;100.00
38630;BME280;24384;51.988;4.644;2023-07-20T04:15:46;101599.59;;;13.88;100.00
38630;BME280;24384;51.988;4.644;2023-07-20T04:18:12;101601.34;;;13.89;100.00
38630;BME280;24384;51.988;4.644;2023-07-20T04:20:37;101591.94;;;14.06;100.00
38630;BME280;24384;51.988;4.644;2023-07-20T04:23:02;101604.97;;;14.12;100.00
38630;BME280;24384;51.988;4.644;2023-07-20T04:25:27;101603.50;;;14.28;100.00
38630;BME280;24384;51.988;4.644;2023-07-20T04:27:53;101604.78;;;14.42;100.00
38630;BME280;24384;51.988;4.644;2023-07-20T04:30:18;101607.94;;;14.28;100.00
38630;BME280;24384;51.988;4.644;2023-07-20T04:32:48;101613.75;;;14.38;100.00
38630;BME280;24384;51.988;4.644;2023-07-20T04:35:51;101610.59;;;14.51;100.00
38630;BME280;24384;51.988;4.644;2023-07-20T04:38:17;101609.47;;;14.59;100.00
38630;BME280;24384;51.988;4.644;2023-07-20T04:40:47;101603.41;;;14.79;100.00
38630;BME280;24384;51.988;4.644;2023-07-20T04:43:13;101593.81;;;14.98;100.00
38630;BME280;24384;51.988;4.644;2023-07-20T04:45:38;101602.59;;;15.00;100.00
38630;BME280;24384;51.988;4.644;2023-07-20T04:48:08;101602.94;;;15.13;100.00
38630;BME280;24384;51.988;4.644;2023-07-20T04:50:34;101604.88;;;15.10;100.00
38630;BME280;24384;51.988;4.644;2023-07-20T04:52:59;101610.59;;;15.21;100.00
38630;BME280;24384;51.988;4.644;2023-07-20T04:55:26;101620.38;;;15.43;100.00
38630;BME280;24384;51.988;4.644;2023-07-20T04:57:51;101614.16;;;15.64;100.00
38630;BME280;24384;51.988;4.644;2023-07-20T05:00:17;101605.25;;;15.65;100.00
38630;BME280;24384;51.988;4.644;2023-07-20T05:02:42;101608.84;;;15.64;100.00
38630;BME280;24384;51.988;4.644;2023-07-20T05:05:07;101611.94;;;15.75;100.00
38630;BME280;24384;51.988;4.644;2023-07-20T05:07:34;101617.63;;;15.88;100.00
38630;BME280;24384;51.988;4.644;2023-07-20T05:09:59;101614.75;;;15.93;100.00
38630;BME280;24384;51.988;4.644;2023-07-20T05:12:24;101610.81;;;16.22;100.00
38630;BME280;24384;51.988;4.644;2023-07-20T05:14:49;101608.63;;;16.51;100.00
38630;BME280;24384;51.988;4.644;2023-07-20T05:17:15;101612.09;;;16.72;100.00
38630;BME280;24384;51.988;4.644;2023-07-20T05:19:40;101618.13;;;16.76;100.00
38630;BME280;24384;51.988;4.644;2023-07-20T05:22:05;101619.88;;;16.77;100.00
38630;BME280;24384;51.988;4.644;2023-07-20T05:24:31;101618.88;;;16.79;100.00
38630;BME280;24384;51.988;4.644;2023-07-20T05:26:58;101627.03;;;16.56;100.00
38630;BME280;24384;51.988;4.644;2023-07-20T05:29:23;101624.09;;;16.62;100.00
38630;BME280;24384;51.988;4.644;2023-07-20T05:31:48;101637.91;;;16.51;100.00
38630;BME280;24384;51.988;4.644;2023-07-20T05:34:14;101619.97;;;16.36;100.00
38630;BME280;24384;51.988;4.644;2023-07-20T05:36:39;101621.56;;;16.40;100.00
38630;BME280;24384;51.988;4.644;2023-07-20T05:39:05;101621.63;;;16.38;100.00
38630;BME280;24384;51.988;4.644;2023-07-20T05:41:31;101627.19;;;16.13;100.00
38630;BME280;24384;51.988;4.644;2023-07-20T05:43:56;101624.25;;;15.99;100.00
38630;BME280;24384;51.988;4.644;2023-07-20T05:46:22;101630.59;;;15.96;100.00
38630;BME280;24384;51.988;4.644;2023-07-20T05:48:47;101625.72;;;15.85;100.00
38630;BME280;24384;51.988;4.644;2023-07-20T05:51:12;101622.94;;;15.88;100.00
38630;BME280;24384;51.988;4.644;2023-07-20T05:53:37;101615.53;;;15.95;100.00
38630;BME280;24384;51.988;4.644;2023-07-20T05:56:04;101623.25;;;16.01;100.00
38630;BME280;24384;51.988;4.644;2023-07-20T05:58:29;101625.34;;;15.95;100.00
38630;BME280;24384;51.988;4.644;2023-07-20T06:00:54;101623.06;;;16.06;100.00
38630;BME280;24384;51.988;4.644;2023-07-20T06:03:19;101632.78;;;16.46;100.00
38630;BME280;24384;51.988;4.644;2023-07-20T06:05:46;101619.94;;;16.56;100.00
38630;BME280;24384;51.988;4.644;2023-07-20T06:08:11;101622.19;;;16.65;100.00
38630;BME280;24384;51.988;4.644;2023-07-20T06:10:37;101619.50;;;16.85;100.00
38630;BME280;24384;51.988;4.644;2023-07-20T06:13:02;101623.72;;;17.09;97.51
38630;BME280;24384;51.988;4.644;2023-07-20T06:15:30;101627.47;;;17.42;94.85
38630;BME280;24384;51.988;4.644;2023-07-20T06:17:56;101625.06;;;17.54;92.86
38630;BME280;24384;51.988;4.644;2023-07-20T06:20:24;101626.63;;;17.59;93.22
38630;BME280;24384;51.988;4.644;2023-07-20T06:22:49;101623.28;;;17.55;93.92
38630;BME280;24384;51.988;4.644;2023-07-20T06:25:15;101624.13;;;17.73;93.36
38630;BME280;24384;51.988;4.644;2023-07-20T06:27:40;101623.81;;;17.79;93.85
38630;BME280;24384;51.988;4.644;2023-07-20T06:30:06;101635.13;;;17.84;93.97
38630;BME280;24384;51.988;4.644;2023-07-20T06:32:31;101637.22;;;17.97;91.61
38630;BME280;24384;51.988;4.644;2023-07-20T06:34:56;101641.59;;;18.15;89.82
38630;BME280;24384;51.988;4.644;2023-07-20T06:37:21;101636.22;;;18.33;88.43
38630;BME280;24384;51.988;4.644;2023-07-20T06:39:47;101640.28;;;18.40;87.43
38630;BME280;24384;51.988;4.644;2023-07-20T06:42:12;101637.66;;;18.56;86.87
38630;BME280;24384;51.988;4.644;2023-07-20T06:44:37;101645.47;;;18.43;86.91
38630;BME280;24384;51.988;4.644;2023-07-20T06:47:03;101639.50;;;18.38;85.12
38630;BME280;24384;51.988;4.644;2023-07-20T06:49:28;101650.41;;;18.51;83.29
38630;BME280;24384;51.988;4.644;2023-07-20T06:51:54;101650.16;;;18.38;83.67
38630;BME280;24384;51.988;4.644;2023-07-20T06:54:19;101644.22;;;18.33;83.63
38630;BME280;24384;51.988;4.644;2023-07-20T06:56:44;101650.91;;;18.41;84.46
38630;BME280;24384;51.988;4.644;2023-07-20T06:59:09;101651.53;;;18.63;82.81
38630;BME280;24384;51.988;4.644;2023-07-20T07:01:35;101648.19;;;18.75;84.50
38630;BME280;24384;51.988;4.644;2023-07-20T07:04:00;101644.47;;;19.11;82.22
38630;BME280;24384;51.988;4.644;2023-07-20T07:06:25;101644.28;;;19.30;81.76
38630;BME280;24384;51.988;4.644;2023-07-20T07:08:52;101643.34;;;19.31;83.38
38630;BME280;24384;51.988;4.644;2023-07-20T07:11:18;101648.88;;;19.28;82.57
38630;BME280;24384;51.988;4.644;2023-07-20T07:13:43;101641.59;;;19.30;82.76
38630;BME280;24384;51.988;4.644;2023-07-20T07:16:08;101649.06;;;19.55;81.41
38630;BME280;24384;51.988;4.644;2023-07-20T07:18:33;101650.00;;;19.70;79.65
38630;BME280;24384;51.988;4.644;2023-07-20T07:20:59;101648.16;;;19.71;79.36
38630;BME280;24384;51.988;4.644;2023-07-20T07:23:24;101648.19;;;20.01;78.18
38630;BME280;24384;51.988;4.644;2023-07-20T07:25:49;101643.75;;;20.30;76.43
38630;BME280;24384;51.988;4.644;2023-07-20T07:28:15;101647.78;;;20.37;77.23
38630;BME280;24384;51.988;4.644;2023-07-20T07:30:40;101650.63;;;20.63;74.85
38630;BME280;24384;51.988;4.644;2023-07-20T07:33:05;101642.91;;;20.87;76.14
38630;BME280;24384;51.988;4.644;2023-07-20T07:35:31;101642.03;;;21.01;74.90
38630;BME280;24384;51.988;4.644;2023-07-20T07:37:56;101645.25;;;21.06;74.40
38630;BME280;24384;51.988;4.644;2023-07-20T07:40:21;101643.56;;;20.91;71.89
38630;BME280;24384;51.988;4.644;2023-07-20T07:42:47;101638.66;;;21.12;72.04
38630;BME280;24384;51.988;4.644;2023-07-20T07:45:12;101646.44;;;21.02;69.65
38630;BME280;24384;51.988;4.644;2023-07-20T07:47:38;101652.97;;;20.84;70.67
38630;BME280;24384;51.988;4.644;2023-07-20T07:50:04;101644.34;;;20.79;71.31
38630;BME280;24384;51.988;4.644;2023-07-20T07:52:29;101651.16;;;21.11;69.51
38630;BME280;24384;51.988;4.644;2023-07-20T07:54:55;101648.94;;;20.91;69.62
38630;BME280;24384;51.988;4.644;2023-07-20T07:57:20;101649.72;;;20.79;69.28
38630;BME280;24384;51.988;4.644;2023-07-20T07:59:45;101655.63;;;20.98;69.12
38630;BME280;24384;51.988;4.644;2023-07-20T08:02:11;101644.09;;;21.38;68.88
38630;BME280;24384;51.988;4.644;2023-07-20T08:04:36;101649.41;;;21.79;67.80
38630;BME280;24384;51.988;4.644;2023-07-20T08:07:03;101653.09;;;22.04;64.80
38630;BME280;24384;51.988;4.644;2023-07-20T08:09:28;101641.03;;;21.71;66.01
38630;BME280;24384;51.988;4.644;2023-07-20T08:11:54;101651.63;;;21.60;64.06
38630;BME280;24384;51.988;4.644;2023-07-20T08:14:19;101650.94;;;21.84;62.77
38630;BME280;24384;51.988;4.644;2023-07-20T08:16:45;101656.22;;;21.98;63.37
38630;BME280;24384;51.988;4.644;2023-07-20T08:19:11;101652.91;;;21.54;63.02
38630;BME280;24384;51.988;4.644;2023-07-20T08:21:36;101654.78;;;21.79;63.82
38630;BME280;24384;51.988;4.644;2023-07-20T08:24:01;101661.50;;;22.12;65.41
38630;BME280;24384;51.988;4.644;2023-07-20T08:26:27;101654.03;;;22.43;65.87
38630;BME280;24384;51.988;4.644;2023-07-20T08:28:52;101653.88;;;22.83;63.22
38630;BME280;24384;51.988;4.644;2023-07-20T08:31:17;101651.84;;;23.24;63.51
38630;BME280;24384;51.988;4.644;2023-07-20T08:33:43;101653.97;;;23.32;64.00
38630;BME280;24384;51.988;4.644;2023-07-20T08:36:08;101648.75;;;23.04;61.19
38630;BME280;24384;51.988;4.644;2023-07-20T08:38:34;101648.06;;;22.89;62.26
38630;BME280;24384;51.988;4.644;2023-07-20T08:40:59;101651.31;;;22.69;61.24
38630;BME280;24384;51.988;4.644;2023-07-20T08:43:27;101654.97;;;22.68;61.03
38630;BME280;24384;51.988;4.644;2023-07-20T08:45:56;101655.41;;;22.62;61.88
38630;BME280;24384;51.988;4.644;2023-07-20T08:48:22;101649.53;;;22.94;62.05
38630;BME280;24384;51.988;4.644;2023-07-20T08:50:52;101652.38;;;22.79;61.87
38630;BME280;24384;51.988;4.644;2023-07-20T08:53:21;101655.31;;;22.63;64.32
38630;BME280;24384;51.988;4.644;2023-07-20T08:55:49;101655.19;;;22.26;64.38
38630;BME280;24384;51.988;4.644;2023-07-20T08:58:15;101665.00;;;21.87;65.87
38630;BME280;24384;51.988;4.644;2023-07-20T09:00:41;101658.69;;;21.61;66.10
38630;BME280;24384;51.988;4.644;2023-07-20T09:03:07;101657.00;;;21.45;67.86
38630;BME280;24384;51.988;4.644;2023-07-20T09:05:33;101653.53;;;21.31;67.94
38630;BME280;24384;51.988;4.644;2023-07-20T09:08:00;101652.09;;;21.25;67.38
38630;BME280;24384;51.988;4.644;2023-07-20T09:10:25;101653.06;;;21.24;68.00
38630;BME280;24384;51.988;4.644;2023-07-20T09:12:50;101647.28;;;21.03;67.01
38630;BME280;24384;51.988;4.644;2023-07-20T09:15:16;101645.56;;;21.02;69.49
38630;BME280;24384;51.988;4.644;2023-07-20T09:17:46;101652.38;;;20.93;68.29
38630;BME280;24384;51.988;4.644;2023-07-20T09:20:14;101654.13;;;21.21;67.04
38630;BME280;24384;51.988;4.644;2023-07-20T09:22:40;101643.09;;;21.80;68.23
38630;BME280;24384;51.988;4.644;2023-07-20T09:25:12;101644.44;;;22.26;67.25
38630;BME280;24384;51.988;4.644;2023-07-20T09:27:40;101647.66;;;22.70;64.27
38630;BME280;24384;51.988;4.644;2023-07-20T09:30:06;101648.84;;;22.79;62.82
38630;BME280;24384;51.988;4.644;2023-07-20T09:32:39;101648.63;;;22.56;62.52
38630;BME280;24384;51.988;4.644;2023-07-20T09:35:06;101649.63;;;22.42;64.28
38630;BME280;24384;51.988;4.644;2023-07-20T09:37:33;101642.94;;;22.61;64.18
38630;BME280;24384;51.988;4.644;2023-07-20T09:39:59;101638.06;;;22.79;63.03
38630;BME280;24384;51.988;4.644;2023-07-20T09:42:24;101643.44;;;22.27;59.92
38630;BME280;24384;51.988;4.644;2023-07-20T09:44:50;101642.63;;;22.52;59.98
38630;BME280;24384;51.988;4.644;2023-07-20T09:47:23;101644.03;;;22.45;62.88
38630;BME280;24384;51.988;4.644;2023-07-20T09:49:48;101648.38;;;21.55;59.50
38630;BME280;24384;51.988;4.644;2023-07-20T09:52:14;101645.38;;;21.59;60.64
38630;BME280;24384;51.988;4.644;2023-07-20T09:54:44;101637.78;;;21.39;63.66
38630;BME280;24384;51.988;4.644;2023-07-20T09:57:11;101637.59;;;21.00;64.38
38630;BME280;24384;51.988;4.644;2023-07-20T09:59:37;101642.63;;;21.19;64.84
38630;BME280;24384;51.988;4.644;2023-07-20T10:02:11;101634.97;;;21.55;62.63
38630;BME280;24384;51.988;4.644;2023-07-20T10:04:39;101630.28;;;22.37;63.60
38630;BME280;24384;51.988;4.644;2023-07-20T10:07:10;101634.66;;;23.01;59.51
38630;BME280;24384;51.988;4.644;2023-07-20T10:09:39;101629.97;;;23.29;56.93
38630;BME280;24384;51.988;4.644;2023-07-20T10:12:07;101635.59;;;23.26;57.87
38630;BME280;24384;51.988;4.644;2023-07-20T10:14:36;101642.91;;;23.83;55.48
38630;BME280;24384;51.988;4.644;2023-07-20T10:17:05;101633.16;;;23.58;57.91
38630;BME280;24384;51.988;4.644;2023-07-20T10:19:34;101632.44;;;23.56;58.78
38630;BME280;24384;51.988;4.644;2023-07-20T10:22:14;101639.97;;;24.22;57.05
38630;BME280;24384;51.988;4.644;2023-07-20T10:24:44;101639.41;;;23.58;57.04
38630;BME280;24384;51.988;4.644;2023-07-20T10:27:09;101630.19;;;24.43;54.95
38630;BME280;24384;51.988;4.644;2023-07-20T10:29:35;101627.84;;;24.95;53.68
38630;BME280;24384;51.988;4.644;2023-07-20T10:32:01;101626.59;;;25.11;50.65
38630;BME280;24384;51.988;4.644;2023-07-20T10:34:26;101627.69;;;25.19;47.66
38630;BME280;24384;51.988;4.644;2023-07-20T10:36:53;101632.31;;;24.62;48.45
38630;BME280;24384;51.988;4.644;2023-07-20T10:39:31;101621.66;;;25.16;50.15
38630;BME280;24384;51.988;4.644;2023-07-20T10:42:07;101626.34;;;24.01;51.72
38630;BME280;24384;51.988;4.644;2023-07-20T10:44:33;101627.78;;;24.63;51.28
38630;BME280;24384;51.988;4.644;2023-07-20T10:47:08;101622.38;;;24.52;51.02
38630;BME280;24384;51.988;4.644;2023-07-20T10:49:34;101624.63;;;24.00;51.82
38630;BME280;24384;51.988;4.644;2023-07-20T10:52:04;101618.47;;;23.86;54.19
38630;BME280;24384;51.988;4.644;2023-07-20T10:56:56;101608.44;;;23.53;52.46
38630;BME280;24384;51.988;4.644;2023-07-20T11:01:54;101607.28;;;23.20;53.53
38630;BME280;24384;51.988;4.644;2023-07-20T11:04:40;101605.59;;;23.19;55.24
38630;BME280;24384;51.988;4.644;2023-07-20T11:07:06;101605.81;;;23.03;53.33
38630;BME280;24384;51.988;4.644;2023-07-20T11:09:35;101605.16;;;23.12;54.14
38630;BME280;24384;51.988;4.644;2023-07-20T11:12:11;101602.31;;;22.27;57.56
38630;BME280;24384;51.988;4.644;2023-07-20T11:17:15;101597.19;;;22.86;56.63
38630;BME280;24384;51.988;4.644;2023-07-20T11:19:41;101599.19;;;22.96;54.97
38630;BME280;24384;51.988;4.644;2023-07-20T11:22:06;101597.56;;;23.30;55.65
38630;BME280;24384;51.988;4.644;2023-07-20T11:24:33;101603.41;;;23.24;55.22
38630;BME280;24384;51.988;4.644;2023-07-20T11:26:58;101602.84;;;23.32;54.51
38630;BME280;24384;51.988;4.644;2023-07-20T11:29:24;101593.66;;;22.73;52.95
38630;BME280;24384;51.988;4.644;2023-07-20T11:31:51;101597.69;;;22.55;53.69
38630;BME280;24384;51.988;4.644;2023-07-20T11:34:17;101589.84;;;22.13;59.76
38630;BME280;24384;51.988;4.644;2023-07-20T11:36:45;101594.47;;;22.37;57.75
38630;BME280;24384;51.988;4.644;2023-07-20T11:39:11;101583.19;;;22.81;55.36
38630;BME280;24384;51.988;4.644;2023-07-20T11:41:37;101582.50;;;23.28;50.42
38630;BME280;24384;51.988;4.644;2023-07-20T11:44:04;101582.03;;;23.34;51.09
38630;BME280;24384;51.988;4.644;2023-07-20T11:46:31;101583.75;;;24.06;56.15
38630;BME280;24384;51.988;4.644;2023-07-20T11:48:57;101577.63;;;24.49;49.68
38630;BME280;24384;51.988;4.644;2023-07-20T11:51:24;101577.00;;;24.00;50.21
38630;BME280;24384;51.988;4.644;2023-07-20T11:53:49;101574.94;;;24.72;50.27
38630;BME280;24384;51.988;4.644;2023-07-20T11:56:15;101567.69;;;25.16;50.36
38630;BME280;24384;51.988;4.644;2023-07-20T11:58:44;101566.13;;;25.67;45.51
38630;BME280;24384;51.988;4.644;2023-07-20T12:01:09;101558.16;;;25.00;45.85
38630;BME280;24384;51.988;4.644;2023-07-20T12:03:36;101570.91;;;25.10;45.32
38630;BME280;24384;51.988;4.644;2023-07-20T12:06:08;101573.44;;;25.23;47.61
38630;BME280;24384;51.988;4.644;2023-07-20T12:08:34;101563.75;;;25.20;49.31
38630;BME280;24384;51.988;4.644;2023-07-20T12:11:00;101562.38;;;24.93;48.34
38630;BME280;24384;51.988;4.644;2023-07-20T12:13:44;101569.94;;;24.67;50.61
38630;BME280;24384;51.988;4.644;2023-07-20T12:16:11;101562.69;;;24.56;48.20
38630;BME280;24384;51.988;4.644;2023-07-20T12:18:37;101566.94;;;24.81;50.73
38630;BME280;24384;51.988;4.644;2023-07-20T12:21:02;101559.13;;;25.11;48.23
38630;BME280;24384;51.988;4.644;2023-07-20T12:23:38;101565.84;;;24.84;45.45
38630;BME280;24384;51.988;4.644;2023-07-20T12:26:06;101555.47;;;25.12;46.09
38630;BME280;24384;51.988;4.644;2023-07-20T12:28:32;101556.84;;;25.38;46.69
38630;BME280;24384;51.988;4.644;2023-07-20T12:30:57;101567.06;;;25.35;47.38
38630;BME280;24384;51.988;4.644;2023-07-20T12:33:23;101561.78;;;25.33;47.26
38630;BME280;24384;51.988;4.644;2023-07-20T12:35:49;101555.84;;;25.28;48.25
38630;BME280;24384;51.988;4.644;2023-07-20T12:38:15;101554.53;;;25.34;49.30
38630;BME280;24384;51.988;4.644;2023-07-20T12:40:41;101554.03;;;24.96;48.84
38630;BME280;24384;51.988;4.644;2023-07-20T12:43:06;101555.72;;;25.09;47.16
38630;BME280;24384;51.988;4.644;2023-07-20T12:45:32;101552.13;;;25.19;48.54
38630;BME280;24384;51.988;4.644;2023-07-20T12:47:57;101548.69;;;25.29;49.31
38630;BME280;24384;51.988;4.644;2023-07-20T12:50:22;101546.72;;;24.87;47.34
38630;BME280;24384;51.988;4.644;2023-07-20T12:52:48;101549.53;;;24.74;47.58
38630;BME280;24384;51.988;4.644;2023-07-20T12:55:13;101552.03;;;24.66;48.48
38630;BME280;24384;51.988;4.644;2023-07-20T12:57:38;101539.53;;;24.97;48.31